Time;durP1;ratioP1;P1;durP2;ratioP2;P2;SDS_P1;SDS_P2;PMS_P1;PMS_P2;Temp;Humidity;BMP_temperature;BMP_pressure;BME280_temperature;BME280_humidity;BME280_pressure;Samples;Min_cycle;Max_cycle;Signal;HPM_P1;HPM_P2
2023/08/13 00:01:55;;;;;;;6.03;1.45;;;23.10;94.10;;;;;;10491818;28;19928;-32
2023/08/13 00:06:57;;;;;;;;;;;23.50;92.90;;;;;;10492138;28;20110;-36
2023/08/13 00:12:02;;;;;;;10.77;2.08;;;24.60;87.40;;;;;;10490204;28;19928;-36
2023/08/13 00:17:04;;;;;;;11.45;1.70;;;23.80;89.20;;;;;;10483397;28;20088;-33
2023/08/13 00:22:06;;;;;;;13.07;1.98;;;23.10;93.90;;;;;;10489840;28;20052;-35
2023/08/13 00:27:09;;;;;;;;;;;22.80;93.20;;;;;;10489041;28;20644;-33
2023/08/13 00:32:11;;;;;;;10.32;1.77;;;23.50;92.50;;;;;;10479425;28;19951;-35
2023/08/13 00:37:13;;;;;;;;;;;24.00;91.00;;;;;;10490396;28;20408;-33
2023/08/13 00:42:17;;;;;;;6.43;1.80;;;24.50;87.80;;;;;;10504488;28;19982;-35
2023/08/13 00:47:19;;;;;;;9.65;1.88;;;24.30;88.40;;;;;;10487911;28;20037;-31
2023/08/13 00:52:20;;;;;;;;;;;23.60;90.90;;;;;;10474968;28;20473;-33
2023/08/13 00:57:24;;;;;;;7.43;1.80;;;24.10;90.30;;;;;;10483283;28;19990;-32
2023/08/13 01:02:26;;;;;;;7.60;1.70;;;24.60;86.20;;;;;;10478057;28;20090;-34
2023/08/13 01:07:33;;;;;;;6.85;1.33;;;24.30;88.40;;;;;;10469172;28;20044;-34
2023/08/13 01:12:49;;;;;;;8.43;2.33;;;24.30;89.20;;;;;;10482829;28;20060;-39
2023/08/13 01:17:53;;;;;;;8.60;1.65;;;23.70;89.90;;;;;;10479117;28;20670;-31
2023/08/13 01:22:56;;;;;;;3.08;1.25;;;24.30;84.50;;;;;;10489335;28;20056;-35
2023/08/13 01:28:08;;;;;;;9.40;1.80;;;24.30;88.80;;;;;;10485141;28;20040;-36
2023/08/13 01:33:13;;;;;;;;;;;24.00;87.80;;;;;;10485207;28;20596;-36
2023/08/13 01:38:17;;;;;;;3.53;1.20;;;23.60;91.40;;;;;;10486454;28;19925;-35
2023/08/13 01:43:19;;;;;;;3.40;1.20;;;23.70;91.70;;;;;;10481948;28;20583;-33
2023/08/13 01:48:21;;;;;;;10.93;1.70;;;23.70;91.40;;;;;;10470722;28;20048;-31
2023/08/13 01:53:24;;;;;;;;;;;24.40;88.20;;;;;;10474094;28;20071;-33
2023/08/13 01:58:27;;;;;;;6.35;1.20;;;23.90;88.80;;;;;;10491324;28;19928;-37
2023/08/13 02:03:29;;;;;;;10.75;2.83;;;24.80;83.90;;;;;;10487982;28;20040;-39
2023/08/13 02:08:33;;;;;;;5.05;1.17;;;23.70;90.00;;;;;;10497289;28;20632;-32
2023/08/13 02:13:34;;;;;;;4.90;1.13;;;25.00;82.90;;;;;;10483188;28;20074;-34
2023/08/13 02:18:36;;;;;;;;;;;24.40;85.60;;;;;;10482797;28;20139;-36
2023/08/13 02:23:39;;;;;;;6.68;1.75;;;24.70;85.60;;;;;;10486560;28;19963;-35
2023/08/13 02:28:43;;;;;;;9.75;1.50;;;24.20;87.60;;;;;;10481427;28;20474;-38
2023/08/13 02:33:44;;;;;;;4.63;1.10;;;23.60;90.80;;;;;;10475100;28;20135;-36
2023/08/13 02:38:47;;;;;;;;;;;23.90;89.80;;;;;;10482231;28;20718;-32
2023/08/13 02:43:51;;;;;;;4.65;1.42;;;24.80;84.10;;;;;;10475070;28;19993;-34
2023/08/13 02:48:54;;;;;;;7.78;1.10;;;24.50;85.60;;;;;;10481028;28;20136;-37
2023/08/13 02:53:58;;;;;;;5.55;1.20;;;24.70;83.40;;;;;;10490390;28;20067;-32
2023/08/13 03:15:32;;;;;;;7.68;1.98;;;25.20;78.90;;;;;;10599201;27;20549;-31
2023/08/13 03:20:34;;;;;;;10.00;1.70;;;24.30;84.20;;;;;;10600072;27;20040;-31
2023/08/13 03:25:36;;;;;;;5.07;1.50;;;24.60;82.50;;;;;;10598781;27;20081;-33
2023/08/13 03:30:39;;;;;;;5.53;1.48;;;24.80;82.60;;;;;;10600318;27;20043;-36
2023/08/13 03:35:41;;;;;;;7.68;1.15;;;25.30;78.60;;;;;;10608212;27;20135;-35
2023/08/13 03:40:44;;;;;;;2.70;0.90;;;25.10;78.40;;;;;;10620222;27;20047;-31
2023/08/13 03:45:47;;;;;;;6.15;1.30;;;25.70;76.20;;;;;;10605955;27;20134;-31
2023/08/13 03:50:49;;;;;;;4.95;1.25;;;25.40;77.10;;;;;;10605680;27;20577;-39
2023/08/13 03:55:51;;;;;;;4.88;1.25;;;25.50;77.50;;;;;;10610191;27;20054;-31
2023/08/13 04:00:54;;;;;;;5.03;0.88;;;25.70;76.30;;;;;;10604323;27;20050;-31
2023/08/13 04:05:56;;;;;;;6.55;1.65;;;24.90;79.60;;;;;;10602437;27;20068;-38
2023/08/13 04:10:58;;;;;;;9.75;1.27;;;25.00;79.00;;;;;;10600754;27;20055;-32
2023/08/13 04:16:02;;;;;;;3.17;1.13;;;25.60;76.40;;;;;;10621546;27;20651;-32
2023/08/13 04:21:04;;;;;;;3.38;0.88;;;25.30;76.90;;;;;;10597410;27;20112;-33
2023/08/13 04:26:06;;;;;;;5.18;0.98;;;25.40;77.50;;;;;;10574186;27;20561;-39
2023/08/13 04:31:09;;;;;;;2.25;0.75;;;25.60;76.10;;;;;;10569889;27;20146;-35
2023/08/13 04:36:10;;;;;;;3.50;1.27;;;25.80;75.20;;;;;;10577890;28;20044;-34
2023/08/13 04:41:12;;;;;;;4.68;1.27;;;25.50;75.30;;;;;;10571620;27;20047;-35
2023/08/13 04:46:15;;;;;;;2.45;0.80;;;25.60;75.50;;;;;;10577536;27;20130;-34
2023/08/13 04:51:18;;;;;;;7.05;1.35;;;25.70;74.80;;;;;;10578300;28;20594;-37
2023/08/13 04:56:19;;;;;;;4.63;1.00;;;25.40;75.60;;;;;;10569364;28;20054;-40
2023/08/13 05:01:23;;;;;;;4.40;1.00;;;25.20;76.90;;;;;;10566770;27;20451;-33
2023/08/13 05:06:24;;;;;;;3.92;1.20;;;25.50;76.20;;;;;;10572347;28;20052;-39
2023/08/13 05:11:26;;;;;;;5.18;1.35;;;25.50;75.60;;;;;;10571260;27;20059;-39
2023/08/13 05:16:29;;;;;;;3.40;1.10;;;25.40;76.40;;;;;;10572735;27;20101;-38
2023/08/13 05:21:31;;;;;;;4.90;1.25;;;25.00;79.20;;;;;;10564554;27;20412;-38
2023/08/13 05:26:33;;;;;;;2.92;0.73;;;25.20;77.80;;;;;;10572593;28;20495;-32
2023/08/13 05:31:36;;;;;;;4.50;1.05;;;25.00;78.50;;;;;;10579178;27;20083;-34
2023/08/13 05:36:39;;;;;;;3.17;0.88;;;25.40;76.30;;;;;;10558276;27;20047;-33
2023/08/13 05:41:41;;;;;;;6.70;1.20;;;25.50;75.90;;;;;;10562879;27;20040;-32
2023/08/13 05:46:44;;;;;;;8.35;1.38;;;25.60;75.00;;;;;;10562781;27;20131;-31
2023/08/13 05:51:48;;;;;;;4.90;1.02;;;24.70;79.50;;;;;;10569422;27;20051;-32
2023/08/13 05:56:49;;;;;;;4.68;1.20;;;25.20;78.80;;;;;;10573196;27;20199;-38
2023/08/13 06:01:53;;;;;;;4.13;1.40;;;25.30;78.20;;;;;;10569428;27;20104;-34
2023/08/13 06:06:54;;;;;;;2.35;0.82;;;25.90;75.20;;;;;;10560009;28;20048;-35
2023/08/13 06:11:56;;;;;;;4.50;1.52;;;26.00;74.70;;;;;;10562888;27;20131;-36
2023/08/13 06:17:00;;;;;;;5.20;1.27;;;25.90;74.70;;;;;;10558390;28;20139;-36
2023/08/13 06:22:01;;;;;;;4.22;1.60;;;25.70;75.50;;;;;;10556224;28;20096;-34
2023/08/13 06:27:04;;;;;;;5.28;1.33;;;25.90;75.10;;;;;;10560397;27;20052;-30
2023/08/13 06:32:07;;;;;;;8.05;1.60;;;25.90;75.00;;;;;;10568023;27;20188;-39
2023/08/13 06:37:09;;;;;;;7.97;1.60;;;25.90;74.60;;;;;;10568842;27;20131;-36
2023/08/13 06:42:11;;;;;;;5.70;1.60;;;26.10;77.30;;;;;;10572174;27;20124;-31
2023/08/13 06:47:15;;;;;;;9.00;1.35;;;26.00;76.20;;;;;;10575315;27;20055;-32
2023/08/13 06:52:17;;;;;;;10.57;1.60;;;26.20;75.60;;;;;;10562635;27;20048;-31
2023/08/13 06:57:19;;;;;;;7.25;1.40;;;26.10;76.10;;;;;;10561949;27;20097;-32
2023/08/13 07:02:22;;;;;;;8.38;1.90;;;25.60;79.10;;;;;;10564482;27;20074;-41
2023/08/13 07:07:24;;;;;;;9.07;1.45;;;25.70;80.30;;;;;;10553531;27;20054;-39
2023/08/13 07:12:26;;;;;;;7.30;1.52;;;25.90;78.30;;;;;;10554718;28;20143;-38
2023/08/13 07:17:29;;;;;;;5.07;1.00;;;26.00;78.10;;;;;;10542781;28;20044;-38
2023/08/13 07:22:31;;;;;;;7.15;1.52;;;26.00;78.20;;;;;;10555900;28;20121;-37
2023/08/13 07:27:34;;;;;;;9.93;1.48;;;25.50;80.20;;;;;;10541877;28;20546;-32
2023/08/13 07:32:37;;;;;;;7.78;1.38;;;25.50;82.60;;;;;;10533024;28;20048;-40
2023/08/13 07:37:39;;;;;;;9.77;1.77;;;25.20;81.30;;;;;;10553340;28;20141;-44
2023/08/13 07:42:41;;;;;;;6.55;1.73;;;25.20;83.10;;;;;;10560551;28;20144;-37
2023/08/13 07:47:44;;;;;;;9.45;1.80;;;25.40;82.80;;;;;;10553130;28;20138;-39
2023/08/13 07:52:46;;;;;;;11.25;1.60;;;25.50;82.40;;;;;;10544918;28;20051;-36
2023/08/13 07:57:48;;;;;;;8.38;1.90;;;25.20;79.70;;;;;;10564207;28;20047;-36
2023/08/13 08:02:51;;;;;;;8.57;1.48;;;25.00;80.20;;;;;;10559357;27;20044;-36
2023/08/13 08:07:53;;;;;;;6.22;1.38;;;25.90;79.50;;;;;;10559415;27;20108;-31
2023/08/13 08:12:55;;;;;;;;;;;24.30;80.00;;;;;;10563153;27;20154;-37
2023/08/13 08:17:58;;;;;;;7.45;1.58;;;24.70;81.50;;;;;;10555045;28;20363;-34
2023/08/13 08:23:00;;;;;;;6.55;1.30;;;25.20;82.60;;;;;;10556831;27;20044;-37
2023/08/13 08:28:02;;;;;;;4.72;1.10;;;25.10;82.70;;;;;;10558446;28;20035;-39
2023/08/13 08:33:06;;;;;;;7.15;1.63;;;25.00;80.40;;;;;;10557308;28;20074;-34
2023/08/13 08:38:09;;;;;;;3.90;1.00;;;24.00;85.40;;;;;;10556934;27;20050;-35
2023/08/13 08:43:11;;;;;;;5.28;1.10;;;24.60;86.30;;;;;;10565260;27;20051;-33
2023/08/13 08:48:15;;;;;;;3.70;1.00;;;24.70;83.10;;;;;;10571139;27;20044;-39
2023/08/13 08:53:17;;;;;;;6.97;1.30;;;24.70;85.20;;;;;;10574726;27;20063;-38
2023/08/13 08:58:19;;;;;;;1.40;0.73;;;25.50;79.10;;;;;;10563972;28;20573;-42
2023/08/13 09:03:23;;;;;;;7.03;1.35;;;25.50;79.60;;;;;;10570314;27;20169;-34
2023/08/13 09:08:26;;;;;;;4.28;0.90;;;25.50;78.10;;;;;;10572428;27;20056;-39
2023/08/13 09:13:28;;;;;;;2.55;0.77;;;25.90;77.70;;;;;;10573227;27;20475;-35
2023/08/13 09:18:40;;;;;;;3.13;0.88;;;26.10;75.90;;;;;;10555730;28;20056;-34
2023/08/13 09:23:41;;;;;;;2.17;0.52;;;26.40;74.40;;;;;;10554584;27;20097;-37
2023/08/13 09:28:43;;;;;;;5.15;0.82;;;26.10;75.10;;;;;;10560762;28;20575;-35
2023/08/13 09:33:47;;;;;;;5.93;1.27;;;26.30;74.70;;;;;;10567332;27;20051;-35
2023/08/13 09:38:49;;;;;;;2.75;0.80;;;25.20;76.10;;;;;;10553913;27;20051;-32
2023/08/13 09:43:54;;;;;;;3.35;1.08;;;25.00;81.00;;;;;;10569265;27;20547;-33
2023/08/13 09:48:59;;;;;;;2.53;0.85;;;24.70;83.20;;;;;;10564217;28;20090;-33
2023/08/13 09:54:10;;;;;;;4.53;0.75;;;24.60;82.30;;;;;;10563801;27;20550;-35
2023/08/13 09:59:12;;;;;;;2.45;0.88;;;23.50;83.30;;;;;;10565274;27;20130;-32
2023/08/13 10:04:16;;;;;;;2.33;0.60;;;24.70;79.20;;;;;;10557084;27;20738;-31
2023/08/13 10:09:19;;;;;;;2.20;0.45;;;25.20;78.10;;;;;;10569004;27;20059;-36
2023/08/13 10:14:21;;;;;;;1.33;0.60;;;23.80;85.80;;;;;;10562835;27;20170;-33
2023/08/13 10:19:30;;;;;;;2.13;0.47;;;24.70;83.40;;;;;;10570996;27;20382;-40
2023/08/13 10:24:32;;;;;;;3.33;0.60;;;25.50;77.50;;;;;;10567905;28;20101;-37
2023/08/13 10:29:38;;;;;;;4.50;1.60;;;25.00;78.90;;;;;;10566516;27;20040;-32
2023/08/13 10:34:46;;;;;;;4.93;0.47;;;25.90;74.00;;;;;;10573239;27;20094;-32
2023/08/13 10:40:04;;;;;;;6.50;0.93;;;25.30;79.40;;;;;;10573246;27;20051;-37
2023/08/13 10:45:08;;;;;;;2.83;0.57;;;25.90;75.10;;;;;;10551721;27;20059;-36
2023/08/13 10:50:30;;;;;;;3.30;0.80;;;25.90;75.50;;;;;;10560961;28;20039;-36
2023/08/13 10:55:33;;;;;;;3.25;0.57;;;25.40;77.00;;;;;;10564084;28;20088;-32
2023/08/13 11:00:43;;;;;;;2.25;0.73;;;25.90;76.80;;;;;;10566066;28;20194;-33
2023/08/13 11:05:47;;;;;;;5.28;1.52;;;26.20;74.50;;;;;;10558967;28;20054;-33
2023/08/13 11:10:50;;;;;;;4.22;0.80;;;26.40;73.40;;;;;;10569492;27;20150;-33
2023/08/13 11:15:54;;;;;;;1.38;0.60;;;26.50;71.90;;;;;;10559460;28;20903;-33
2023/08/13 11:20:58;;;;;;;2.00;0.70;;;26.90;71.90;;;;;;10573249;28;20067;-31
2023/08/13 11:26:00;;;;;;;2.88;1.00;;;26.90;71.20;;;;;;10570347;28;20048;-41
2023/08/13 11:31:02;;;;;;;4.25;1.20;;;26.90;69.80;;;;;;10569412;28;20159;-34
2023/08/13 11:36:06;;;;;;;4.90;0.70;;;26.70;71.20;;;;;;10576914;27;20142;-34
2023/08/13 11:41:12;;;;;;;2.58;0.50;;;25.80;74.80;;;;;;10562490;27;20180;-35
2023/08/13 11:46:14;;;;;;;3.30;1.02;;;25.90;74.80;;;;;;10577287;27;20047;-37
2023/08/13 11:51:22;;;;;;;2.25;0.50;;;26.40;70.80;;;;;;10569649;28;20114;-32
2023/08/13 11:56:24;;;;;;;3.83;0.70;;;26.80;71.70;;;;;;10574728;27;20484;-32
2023/08/13 12:01:26;;;;;;;3.53;0.63;;;25.90;75.50;;;;;;10568017;27;20083;-37
2023/08/13 12:06:29;;;;;;;5.82;1.15;;;26.20;72.00;;;;;;10578464;27;20056;-36
2023/08/13 12:11:31;;;;;;;4.20;0.95;;;25.20;75.50;;;;;;10577786;28;20139;-37
2023/08/13 12:16:33;;;;;;;3.00;0.63;;;26.20;74.60;;;;;;10571869;28;20694;-41
2023/08/13 12:21:37;;;;;;;0.88;0.47;;;26.00;74.70;;;;;;10577478;27;20036;-34
2023/08/13 12:26:39;;;;;;;2.38;0.47;;;26.70;72.50;;;;;;10564111;28;20048;-37
2023/08/13 12:31:40;;;;;;;3.42;0.50;;;25.70;76.10;;;;;;10568669;27;20442;-33
2023/08/13 12:36:44;;;;;;;1.45;0.50;;;26.00;74.20;;;;;;10577447;27;20097;-44
2023/08/13 12:41:45;;;;;;;1.55;0.40;;;25.10;73.90;;;;;;10573261;27;20054;-36
2023/08/13 12:46:47;;;;;;;;;;;24.70;78.10;;;;;;10573423;27;20673;-32
2023/08/13 12:51:50;;;;;;;1.33;0.40;;;25.30;73.60;;;;;;10563954;28;20018;-37
2023/08/13 12:56:52;;;;;;;0.30;0.20;;;25.30;77.60;;;;;;10562992;27;20449;-35
2023/08/13 13:01:54;;;;;;;;;;;23.60;88.00;;;;;;10561386;28;20043;-36
2023/08/13 13:06:57;;;;;;;2.53;0.43;;;24.80;82.80;;;;;;10568210;27;19923;-33
2023/08/13 13:11:59;;;;;;;1.15;0.40;;;26.20;74.70;;;;;;10571282;28;20074;-36
2023/08/13 13:17:01;;;;;;;0.40;0.20;;;26.50;71.80;;;;;;10575124;27;20051;-37
2023/08/13 13:22:05;;;;;;;1.42;0.28;;;26.60;71.80;;;;;;10570372;27;20074;-35
2023/08/13 13:27:07;;;;;;;0.95;0.30;;;26.90;70.60;;;;;;10561530;27;20052;-41
2023/08/13 13:32:08;;;;;;;0.47;0.20;;;26.30;70.60;;;;;;10572684;27;20074;-33
2023/08/13 13:37:12;;;;;;;0.68;0.28;;;26.60;71.10;;;;;;10559435;27;20560;-37
2023/08/13 13:42:13;;;;;;;2.00;0.32;;;26.20;71.20;;;;;;10559080;27;20036;-37
2023/08/13 13:47:15;;;;;;;1.45;0.40;;;25.20;74.50;;;;;;10551443;28;20068;-38
2023/08/13 13:52:19;;;;;;;2.08;0.25;;;25.70;71.80;;;;;;10562360;27;20476;-35
2023/08/13 13:57:20;;;;;;;3.45;0.30;;;25.90;72.10;;;;;;10546320;28;20043;-36
2023/08/13 14:02:22;;;;;;;1.27;0.40;;;26.20;69.40;;;;;;10560533;28;20063;-33
2023/08/13 14:07:26;;;;;;;1.70;0.40;;;26.40;68.20;;;;;;10573359;28;20101;-31
2023/08/13 14:12:28;;;;;;;2.85;0.35;;;26.00;69.90;;;;;;10572848;28;20050;-39
2023/08/13 14:17:31;;;;;;;2.03;0.40;;;26.40;68.90;;;;;;10567828;27;20101;-36
2023/08/13 14:22:34;;;;;;;2.03;0.50;;;26.70;68.70;;;;;;10572767;27;20070;-39
2023/08/13 14:27:36;;;;;;;2.58;0.30;;;27.10;67.00;;;;;;10545878;28;20091;-37
2023/08/13 14:32:37;;;;;;;1.33;0.30;;;27.40;66.50;;;;;;10574568;27;20059;-38
2023/08/13 14:37:41;;;;;;;2.42;0.40;;;27.50;66.20;;;;;;10554288;28;20136;-34
2023/08/13 14:42:43;;;;;;;0.38;0.20;;;27.20;65.10;;;;;;10580946;27;20104;-34
2023/08/13 14:47:44;;;;;;;2.05;0.63;;;27.20;64.60;;;;;;10562834;28;20515;-35
2023/08/13 14:52:48;;;;;;;1.35;0.40;;;26.30;66.60;;;;;;10558627;28;20067;-32
2023/08/13 14:57:49;;;;;;;0.60;0.20;;;27.30;66.20;;;;;;10571885;27;20047;-35
2023/08/13 15:02:51;;;;;;;1.50;0.47;;;27.80;65.80;;;;;;10564190;27;20594;-33
2023/08/13 15:07:54;;;;;;;2.50;0.40;;;28.00;65.50;;;;;;10569015;28;20134;-38
2023/08/13 15:12:56;;;;;;;3.33;0.63;;;28.00;64.60;;;;;;10571724;28;20048;-36
2023/08/13 15:17:58;;;;;;;2.33;0.50;;;28.10;62.30;;;;;;10555144;28;20081;-43
2023/08/13 15:23:01;;;;;;;1.77;0.68;;;28.00;63.40;;;;;;10562346;28;20437;-37
2023/08/13 15:28:04;;;;;;;0.77;0.40;;;28.10;63.20;;;;;;10555956;28;20043;-37
2023/08/13 15:33:06;;;;;;;1.77;0.55;;;28.20;62.80;;;;;;10560579;28;20044;-39
2023/08/13 15:38:09;;;;;;;1.67;0.57;;;28.10;63.70;;;;;;10574576;28;20497;-40
2023/08/13 15:43:11;;;;;;;1.95;0.40;;;28.50;62.10;;;;;;10564991;28;20040;-39
2023/08/13 15:48:12;;;;;;;2.92;0.85;;;28.20;58.40;;;;;;10557943;28;20071;-34
2023/08/13 15:53:16;;;;;;;5.25;0.65;;;28.40;60.90;;;;;;10568008;28;20138;-37
2023/08/13 15:58:18;;;;;;;2.17;0.70;;;28.50;59.50;;;;;;10565418;28;20048;-40
2023/08/13 16:03:19;;;;;;;6.03;1.30;;;29.20;59.10;;;;;;10557863;28;20537;-43
2023/08/13 16:08:23;;;;;;;3.83;1.17;;;28.60;63.30;;;;;;10566776;28;20047;-31
2023/08/13 16:13:26;;;;;;;4.53;1.02;;;28.80;61.40;;;;;;10567105;28;20143;-39
2023/08/13 16:18:28;;;;;;;3.92;0.80;;;28.20;61.00;;;;;;10556012;28;20388;-36
2023/08/13 16:23:31;;;;;;;7.28;0.90;;;27.90;68.30;;;;;;10573853;27;20172;-36
2023/08/13 16:28:33;;;;;;;3.25;0.73;;;28.50;67.20;;;;;;10576496;27;20119;-37
2023/08/13 16:33:36;;;;;;;5.93;0.98;;;28.50;65.60;;;;;;10572333;28;20047;-39
2023/08/13 16:38:39;;;;;;;5.82;0.90;;;28.90;64.70;;;;;;10563650;27;20044;-40
2023/08/13 16:43:41;;;;;;;3.25;0.95;;;27.60;72.00;;;;;;10561522;27;20104;-38
2023/08/13 16:48:43;;;;;;;4.45;0.77;;;27.80;71.20;;;;;;10576293;27;20055;-40
2023/08/13 16:53:46;;;;;;;5.15;1.10;;;28.10;70.40;;;;;;10566139;28;20070;-36
2023/08/13 16:58:48;;;;;;;4.28;1.17;;;28.70;63.90;;;;;;10567961;27;20107;-34
2023/08/13 17:03:50;;;;;;;6.72;1.63;;;29.00;65.90;;;;;;10570575;27;20056;-33
2023/08/13 17:08:53;;;;;;;8.02;1.45;;;28.30;67.10;;;;;;10575539;27;20206;-37
2023/08/13 17:13:55;;;;;;;4.15;0.82;;;27.20;65.60;;;;;;10569693;28;20093;-36
2023/08/13 17:18:58;;;;;;;5.85;1.17;;;28.10;75.20;;;;;;10568105;28;20055;-41
2023/08/13 17:24:01;;;;;;;3.97;0.60;;;27.40;74.20;;;;;;10577816;27;20122;-42
2023/08/13 17:29:03;;;;;;;3.95;1.00;;;25.60;80.00;;;;;;10573507;28;20468;-41
2023/08/13 17:34:06;;;;;;;1.63;0.50;;;26.20;87.90;;;;;;10563847;27;20051;-42
2023/08/13 17:39:09;;;;;;;3.20;0.70;;;26.60;90.90;;;;;;10572350;27;20066;-33
2023/08/13 17:44:11;;;;;;;7.43;1.25;;;27.70;71.20;;;;;;10567529;27;20130;-33
2023/08/13 17:49:12;;;;;;;7.28;1.27;;;26.90;78.60;;;;;;10567370;28;20575;-32
2023/08/13 17:54:15;;;;;;;3.90;1.10;;;25.90;70.70;;;;;;10566773;27;20093;-36
2023/08/13 17:59:17;;;;;;;5.93;0.88;;;26.60;71.80;;;;;;10573646;27;20051;-31
2023/08/13 18:04:19;;;;;;;3.42;0.77;;;25.30;76.90;;;;;;10563425;27;20079;-35
2023/08/13 18:09:22;;;;;;;6.85;1.27;;;25.60;91.40;;;;;;10568478;27;20104;-32
2023/08/13 18:14:24;;;;;;;7.40;0.85;;;26.60;84.70;;;;;;10566437;27;20048;-37
2023/08/13 18:19:26;;;;;;;1.75;0.40;;;26.50;71.20;;;;;;10572384;27;20097;-32
2023/08/13 18:24:29;;;;;;;7.10;0.80;;;27.10;81.80;;;;;;10571489;28;20063;-38
2023/08/13 18:29:31;;;;;;;7.13;1.20;;;26.50;79.60;;;;;;10565447;27;20548;-38
2023/08/13 18:34:33;;;;;;;4.05;0.95;;;26.60;71.30;;;;;;10567056;27;20078;-32
2023/08/13 18:39:36;;;;;;;7.05;1.98;;;26.20;73.50;;;;;;10569609;27;20047;-41
2023/08/13 18:44:38;;;;;;;0.77;0.50;;;25.30;73.60;;;;;;10572096;27;20130;-38
2023/08/13 18:49:40;;;;;;;4.60;0.75;;;26.30;86.30;;;;;;10555516;28;20052;-34
2023/08/13 18:54:43;;;;;;;1.73;0.40;;;27.60;76.00;;;;;;10565219;27;20092;-36
2023/08/13 18:59:45;;;;;;;1.92;0.70;;;28.60;71.80;;;;;;10570433;27;20407;-34
2023/08/13 19:04:47;;;;;;;3.20;0.60;;;28.00;71.00;;;;;;10570892;27;20108;-35
2023/08/13 19:09:50;;;;;;;2.83;0.90;;;28.20;71.40;;;;;;10566909;27;20043;-37
2023/08/13 19:14:55;;;;;;;1.38;0.65;;;28.70;69.40;;;;;;10565944;28;20090;-37
2023/08/13 19:19:57;;;;;;;2.78;0.70;;;28.80;68.70;;;;;;10555891;28;20040;-36
2023/08/13 19:25:00;;;;;;;4.07;0.63;;;28.90;68.20;;;;;;10561544;28;20097;-41
2023/08/13 19:30:03;;;;;;;4.40;0.93;;;28.90;68.00;;;;;;10555293;28;20556;-41
2023/08/13 19:35:05;;;;;;;3.20;0.70;;;28.90;67.60;;;;;;10561964;28;20047;-37
2023/08/13 19:40:10;;;;;;;3.25;0.40;;;28.90;67.50;;;;;;10564804;28;20126;-38
2023/08/13 19:45:12;;;;;;;2.45;0.80;;;28.90;67.30;;;;;;10554571;28;20412;-39
2023/08/13 19:50:14;;;;;;;3.35;0.47;;;28.90;67.10;;;;;;10554361;28;20108;-36
2023/08/13 19:55:17;;;;;;;1.05;0.52;;;28.90;67.10;;;;;;10577915;27;20093;-33
2023/08/13 20:00:19;;;;;;;2.22;0.47;;;28.80;67.00;;;;;;10570764;27;20147;-36
2023/08/13 20:05:21;;;;;;;1.83;0.57;;;28.80;67.10;;;;;;10566201;28;20075;-32
2023/08/13 20:10:24;;;;;;;2.17;0.50;;;28.70;67.00;;;;;;10578358;27;20101;-41
2023/08/13 20:15:27;;;;;;;2.42;0.70;;;28.70;67.10;;;;;;10573675;27;20112;-32
2023/08/13 20:20:28;;;;;;;3.35;0.70;;;28.60;67.00;;;;;;10571836;27;20039;-38
2023/08/13 20:25:33;;;;;;;1.48;0.50;;;28.50;67.10;;;;;;10565944;27;20075;-34
2023/08/13 20:30:34;;;;;;;0.82;0.38;;;28.50;67.20;;;;;;10575670;28;20514;-36
2023/08/13 20:35:36;;;;;;;1.95;0.50;;;28.40;67.40;;;;;;10574285;27;20469;-37
2023/08/13 20:40:39;;;;;;;1.75;0.75;;;28.30;66.90;;;;;;10564914;27;20071;-33
2023/08/13 20:45:41;;;;;;;1.85;0.75;;;28.30;67.60;;;;;;10575031;28;20056;-42
2023/08/13 20:50:43;;;;;;;2.80;0.60;;;28.30;67.60;;;;;;10560902;28;20090;-35
2023/08/13 20:55:46;;;;;;;3.92;0.75;;;28.30;67.70;;;;;;10574647;28;20059;-37
2023/08/13 21:00:48;;;;;;;1.75;0.70;;;28.30;67.70;;;;;;10568131;27;20067;-35
2023/08/13 21:05:50;;;;;;;2.08;0.52;;;28.20;67.80;;;;;;10567028;27;20044;-35
2023/08/13 21:10:54;;;;;;;1.55;0.30;;;28.00;68.00;;;;;;10552559;27;20071;-32
2023/08/13 21:15:55;;;;;;;2.90;0.80;;;28.10;68.00;;;;;;10559901;28;20063;-39
2023/08/13 21:20:57;;;;;;;0.98;0.40;;;28.10;67.50;;;;;;10571126;28;20063;-36
2023/08/13 21:26:00;;;;;;;2.15;0.63;;;28.10;67.90;;;;;;10567432;27;20124;-35
2023/08/13 21:31:02;;;;;;;3.20;0.50;;;28.10;67.90;;;;;;10573987;27;20655;-36
2023/08/13 21:36:05;;;;;;;1.02;0.40;;;28.00;67.80;;;;;;10540028;28;20656;-35
2023/08/13 21:41:08;;;;;;;2.17;0.60;;;27.90;68.00;;;;;;10549717;27;20059;-33
2023/08/13 21:46:10;;;;;;;3.13;0.73;;;28.00;67.80;;;;;;10532274;27;20129;-34
2023/08/13 21:51:12;;;;;;;0.85;0.38;;;27.80;68.20;;;;;;10556163;28;20097;-40
2023/08/13 21:56:15;;;;;;;2.58;0.70;;;27.90;67.90;;;;;;10552184;28;20087;-37
2023/08/13 22:01:17;;;;;;;1.40;0.47;;;27.80;68.00;;;;;;10550424;28;20052;-37
2023/08/13 22:06:18;;;;;;;1.70;0.60;;;27.80;68.00;;;;;;10558730;27;20040;-39
2023/08/13 22:11:22;;;;;;;2.00;0.63;;;27.80;68.10;;;;;;10548991;27;20102;-35
2023/08/13 22:16:23;;;;;;;4.53;0.93;;;27.70;68.00;;;;;;10556590;27;20075;-31
2023/08/13 22:21:25;;;;;;;1.55;0.70;;;27.70;68.00;;;;;;10544823;27;20044;-35
2023/08/13 22:26:28;;;;;;;3.53;0.98;;;27.70;68.00;;;;;;10547784;27;20114;-36
2023/08/13 22:31:30;;;;;;;2.13;0.60;;;27.60;68.10;;;;;;10553351;28;20051;-34
2023/08/13 22:36:32;;;;;;;1.75;0.80;;;27.60;68.00;;;;;;10548782;28;20094;-39
2023/08/13 22:41:35;;;;;;;2.45;1.08;;;27.60;68.10;;;;;;10554801;27;20135;-34
2023/08/13 22:46:37;;;;;;;2.40;1.10;;;27.50;68.10;;;;;;10549586;27;20658;-34
2023/08/13 22:51:39;;;;;;;1.90;0.85;;;27.50;68.20;;;;;;10546123;27;20063;-33
2023/08/13 22:56:42;;;;;;;2.63;1.00;;;27.50;68.20;;;;;;10546296;27;20044;-42
2023/08/13 23:01:44;;;;;;;3.15;0.88;;;27.40;68.30;;;;;;10554245;27;20468;-37
2023/08/13 23:06:46;;;;;;;1.65;0.90;;;27.40;68.30;;;;;;10542561;28;20044;-37
2023/08/13 23:11:50;;;;;;;1.83;0.85;;;27.40;68.30;;;;;;10541490;27;20067;-35
2023/08/13 23:16:53;;;;;;;2.47;0.88;;;27.30;68.90;;;;;;10553249;28;20122;-33
2023/08/13 23:21:55;;;;;;;1.35;0.70;;;27.30;68.40;;;;;;10549797;28;20051;-35
2023/08/13 23:26:58;;;;;;;1.60;0.70;;;27.20;68.20;;;;;;10552497;28;20097;-35
2023/08/13 23:32:00;;;;;;;4.38;0.88;;;27.20;68.30;;;;;;10555892;27;20779;-37
2023/08/13 23:37:01;;;;;;;1.08;0.50;;;27.20;68.30;;;;;;10549662;27;20048;-32
2023/08/13 23:42:05;;;;;;;1.35;0.65;;;27.20;68.20;;;;;;10561723;27;20131;-36
2023/08/13 23:47:07;;;;;;;2.35;0.90;;;27.10;68.10;;;;;;10568874;28;20138;-37
2023/08/13 23:52:08;;;;;;;2.80;0.93;;;27.10;68.10;;;;;;10576286;28;20036;-31
2023/08/13 23:57:12;;;;;;;2.15;1.00;;;27.10;68.20;;;;;;10568911;27;20485;-31
